createdAt,value
2023-07-03T00:00:53.652Z,98294.19
2023-07-03T00:03:39.009Z,98292.06
2023-07-03T00:06:23.641Z,98290.81
2023-07-03T00:09:09.712Z,98293.72
2023-07-03T00:11:54.996Z,98289.41
2023-07-03T00:14:39.790Z,98302.91
2023-07-03T00:17:24.735Z,98302.00
2023-07-03T00:20:16.852Z,98302.00
2023-07-03T00:23:02.203Z,98304.16
2023-07-03T00:25:47.084Z,98306.59
2023-07-03T00:28:32.060Z,98301.53
2023-07-03T00:31:17.204Z,98304.59
2023-07-03T00:34:02.286Z,98301.19
2023-07-03T00:36:47.985Z,98312.69
2023-07-03T00:39:32.917Z,98314.50
2023-07-03T00:42:17.979Z,98315.22
2023-07-03T00:45:08.031Z,98313.06
2023-07-03T00:47:54.312Z,98319.34
2023-07-03T00:50:39.032Z,98316.28
2023-07-03T00:53:23.697Z,98317.81
2023-07-03T00:56:08.791Z,98326.13
2023-07-03T00:58:53.746Z,98323.19
2023-07-03T01:01:45.924Z,98331.63
2023-07-03T01:04:41.569Z,98325.03
2023-07-03T01:07:32.334Z,98321.47
2023-07-03T01:10:23.351Z,98336.19
2023-07-03T01:13:13.996Z,98327.69
2023-07-03T01:15:59.955Z,98335.34
2023-07-03T01:18:47.277Z,98338.38
2023-07-03T01:21:43.637Z,98342.97
2023-07-03T01:24:44.993Z,98341.34
2023-07-03T01:27:34.988Z,98344.78
2023-07-03T01:30:21.751Z,98348.53
2023-07-03T01:33:08.493Z,98354.88
2023-07-03T01:35:54.597Z,98357.53
2023-07-03T01:38:44.488Z,98355.22
2023-07-03T01:41:30.136Z,98361.22
2023-07-03T01:44:15.267Z,98365.88
2023-07-03T01:47:11.780Z,98374.66
2023-07-03T01:49:57.046Z,98372.72
2023-07-03T01:52:52.211Z,98385.34
2023-07-03T01:55:51.826Z,98394.13
2023-07-03T01:58:47.168Z,98402.63
2023-07-03T02:01:45.528Z,98407.03
2023-07-03T02:04:52.840Z,98413.81
2023-07-03T02:07:41.014Z,98412.50
2023-07-03T02:10:26.197Z,98411.19
2023-07-03T02:13:12.069Z,98412.72
2023-07-03T02:15:57.188Z,98417.66
2023-07-03T02:18:43.159Z,98416.50
2023-07-03T02:21:29.485Z,98426.72
2023-07-03T02:24:14.364Z,98421.34
2023-07-03T02:27:00.209Z,98422.97
2023-07-03T02:29:45.021Z,98417.56
2023-07-03T02:32:39.343Z,98418.34
2023-07-03T02:35:24.795Z,98426.75
2023-07-03T02:38:10.517Z,98429.44
2023-07-03T02:40:57.693Z,98418.97
2023-07-03T02:43:42.585Z,98410.22
2023-07-03T02:46:27.586Z,98422.34
2023-07-03T02:49:12.630Z,98431.84
2023-07-03T02:52:01.033Z,98427.06
2023-07-03T02:54:49.555Z,98423.94
2023-07-03T02:57:34.593Z,98427.88
2023-07-03T03:00:19.664Z,98429.56
2023-07-03T03:03:04.856Z,98436.00
2023-07-03T03:05:50.342Z,98442.78
2023-07-03T03:08:35.528Z,98447.25
2023-07-03T03:11:20.400Z,98453.50
2023-07-03T03:14:08.324Z,98458.59
2023-07-03T03:16:54.353Z,98465.03
2023-07-03T03:19:39.572Z,98472.03
2023-07-03T03:22:24.124Z,98474.00
2023-07-03T03:25:09.223Z,98472.75
2023-07-03T03:27:55.942Z,98480.59
2023-07-03T03:30:40.631Z,98474.16
2023-07-03T03:33:25.581Z,98489.69
2023-07-03T03:36:10.682Z,98482.50
2023-07-03T03:38:55.517Z,98483.63
2023-07-03T03:41:40.699Z,98495.81
2023-07-03T03:44:27.264Z,98494.31
2023-07-03T03:47:11.829Z,98491.22
2023-07-03T03:49:56.823Z,98502.75
2023-07-03T03:52:42.241Z,98496.75
2023-07-03T03:55:28.096Z,98498.31
2023-07-03T03:58:15.976Z,98506.16
2023-07-03T04:01:01.492Z,98509.72
2023-07-03T04:03:47.153Z,98511.59
2023-07-03T04:06:32.126Z,98515.94
2023-07-03T04:09:17.009Z,98519.50
2023-07-03T04:12:01.794Z,98515.03
2023-07-03T04:14:46.547Z,98513.59
2023-07-03T04:17:31.231Z,98513.31
2023-07-03T04:20:18.228Z,98516.69
2023-07-03T04:23:03.094Z,98519.78
2023-07-03T04:25:49.447Z,98532.19
2023-07-03T04:28:34.593Z,98527.91
2023-07-03T04:31:19.866Z,98532.69
2023-07-03T04:34:06.336Z,98535.25
2023-07-03T04:36:51.192Z,98539.00
2023-07-03T04:39:36.050Z,98545.84
2023-07-03T04:42:21.105Z,98550.50
2023-07-03T04:45:08.297Z,98544.88
2023-07-03T04:47:53.577Z,98564.00
2023-07-03T04:50:38.443Z,98564.78
2023-07-03T04:53:23.774Z,98573.28
2023-07-03T04:56:10.502Z,98569.41
2023-07-03T04:58:55.401Z,98574.31
2023-07-03T05:01:43.340Z,98574.03
2023-07-03T05:04:28.599Z,98566.03
2023-07-03T05:07:14.379Z,98581.44
2023-07-03T05:09:58.884Z,98576.66
2023-07-03T05:12:45.295Z,98581.28
2023-07-03T05:15:31.587Z,98583.88
2023-07-03T05:18:16.770Z,98585.59
2023-07-03T05:21:01.957Z,98590.97
2023-07-03T05:23:47.352Z,98587.84
2023-07-03T05:26:32.033Z,98582.31
2023-07-03T05:29:17.116Z,98583.06
2023-07-03T05:32:03.275Z,98590.06
2023-07-03T05:34:47.856Z,98593.75
2023-07-03T05:37:33.702Z,98595.28
2023-07-03T05:40:18.921Z,98596.88
2023-07-03T05:43:03.417Z,98592.13
2023-07-03T05:45:49.999Z,98593.34
2023-07-03T05:48:34.781Z,98595.81
2023-07-03T05:51:19.406Z,98605.53
2023-07-03T05:54:06.826Z,98606.19
2023-07-03T05:56:59.344Z,98609.91
2023-07-03T05:59:44.316Z,98618.22
2023-07-03T06:02:29.331Z,98620.41
2023-07-03T06:05:14.848Z,98620.50
2023-07-03T06:08:00.097Z,98624.16
2023-07-03T06:10:46.007Z,98621.00
2023-07-03T06:13:30.571Z,98621.66
2023-07-03T06:16:16.883Z,98614.03
2023-07-03T06:19:01.829Z,98619.84
2023-07-03T06:21:46.811Z,98625.09
2023-07-03T06:24:32.386Z,98623.06
2023-07-03T06:27:17.205Z,98629.06
2023-07-03T06:30:03.820Z,98637.19
2023-07-03T06:32:48.706Z,98643.09
2023-07-03T06:35:34.960Z,98640.38
2023-07-03T06:38:19.873Z,98641.13
2023-07-03T06:41:04.328Z,98645.19
2023-07-03T06:43:50.200Z,98647.22
2023-07-03T06:46:34.855Z,98649.28
2023-07-03T06:49:22.959Z,98645.63
2023-07-03T06:52:10.265Z,98653.78
2023-07-03T06:54:55.215Z,98663.84
2023-07-03T06:57:40.194Z,98665.25
2023-07-03T07:00:25.523Z,98656.66
2023-07-03T07:03:10.478Z,98658.94
2023-07-03T07:05:56.417Z,98652.91
2023-07-03T07:08:42.694Z,98653.72
2023-07-03T07:11:29.889Z,98665.56
2023-07-03T07:14:14.982Z,98655.91
2023-07-03T07:16:59.824Z,98659.66
2023-07-03T07:19:45.901Z,98662.03
2023-07-03T07:22:30.476Z,98666.09
2023-07-03T07:25:15.136Z,98659.06
2023-07-03T07:28:00.422Z,98661.69
2023-07-03T07:30:46.626Z,98669.78
2023-07-03T07:33:31.308Z,98665.03
2023-07-03T07:36:19.249Z,98666.72
2023-07-03T07:39:03.977Z,98669.34
2023-07-03T07:41:51.497Z,98673.31
2023-07-03T07:44:36.431Z,98667.84
2023-07-03T07:47:21.508Z,98668.78
2023-07-03T07:50:07.127Z,98672.09
2023-07-03T07:52:51.910Z,98676.84
2023-07-03T07:55:37.335Z,98674.66
2023-07-03T07:58:22.002Z,98677.72
2023-07-03T08:01:07.047Z,98682.69
2023-07-03T08:03:52.085Z,98683.47
2023-07-03T08:06:36.830Z,98674.75
2023-07-03T08:09:23.588Z,98674.81
2023-07-03T08:12:09.003Z,98673.13
2023-07-03T08:14:53.984Z,98674.31
2023-07-03T08:17:39.224Z,98681.25
2023-07-03T08:20:24.112Z,98665.16
2023-07-03T08:23:09.266Z,98673.72
2023-07-03T08:25:55.504Z,98675.41
2023-07-03T08:28:40.223Z,98686.34
2023-07-03T08:31:25.579Z,98682.06
2023-07-03T08:34:11.123Z,98693.22
2023-07-03T08:39:44.302Z,98694.16
2023-07-03T08:42:35.651Z,98694.25
2023-07-03T08:45:23.212Z,98697.78
2023-07-03T08:48:14.341Z,98699.63
2023-07-03T08:51:02.819Z,98699.53
2023-07-03T08:53:55.210Z,98690.50
2023-07-03T08:56:41.057Z,98698.97
2023-07-03T08:59:26.100Z,98686.28
2023-07-03T09:02:28.352Z,98687.59
2023-07-03T09:05:38.593Z,98694.50
2023-07-03T09:08:36.630Z,98687.69
2023-07-03T09:11:23.781Z,98694.84
2023-07-03T09:14:13.230Z,98689.88
2023-07-03T09:16:58.085Z,98690.50
2023-07-03T09:19:47.797Z,98696.84
2023-07-03T09:22:42.062Z,98691.53
2023-07-03T09:25:44.780Z,98696.63
2023-07-03T09:28:32.575Z,98710.28
2023-07-03T09:31:17.967Z,98700.97
2023-07-03T09:34:03.261Z,98703.94
2023-07-03T09:36:59.384Z,98710.50
2023-07-03T09:39:47.075Z,98706.38
2023-07-03T09:42:32.871Z,98702.25
2023-07-03T09:45:20.348Z,98701.97
2023-07-03T09:48:19.011Z,98706.00
2023-07-03T09:51:25.411Z,98705.06
2023-07-03T09:54:22.182Z,98706.44
2023-07-03T09:57:17.909Z,98697.88
2023-07-03T10:00:15.324Z,98708.06
2023-07-03T10:08:42.766Z,98709.44
2023-07-03T10:11:47.012Z,98706.44
2023-07-03T10:15:19.008Z,98699.69
2023-07-03T10:18:12.411Z,98701.94
2023-07-03T10:20:59.297Z,98711.97
2023-07-03T10:23:45.438Z,98709.03
2023-07-03T10:26:43.389Z,98703.56
2023-07-03T10:29:37.983Z,98700.25
2023-07-03T10:32:27.742Z,98705.69
2023-07-03T10:35:18.672Z,98708.91
2023-07-03T10:38:33.112Z,98698.31
2023-07-03T10:41:20.340Z,98699.28
2023-07-03T10:44:11.104Z,98707.38
2023-07-03T10:47:05.565Z,98704.91
2023-07-03T10:49:50.840Z,98709.22
2023-07-03T10:52:47.174Z,98708.50
2023-07-03T10:55:40.883Z,98711.97
2023-07-03T10:58:44.827Z,98705.59
2023-07-03T11:01:39.709Z,98709.66
2023-07-03T11:04:53.516Z,98708.78
2023-07-03T11:07:56.007Z,98710.16
2023-07-03T11:10:47.108Z,98713.34
2023-07-03T11:13:52.146Z,98716.00
2023-07-03T11:17:00.255Z,98717.00
2023-07-03T11:20:13.021Z,98719.44
2023-07-03T11:23:26.035Z,98728.69
2023-07-03T11:29:09.267Z,98719.22
2023-07-03T11:31:56.466Z,98710.81
2023-07-03T11:40:54.063Z,98722.84
2023-07-03T11:43:47.782Z,98707.41
2023-07-03T11:46:34.033Z,98715.97
2023-07-03T11:49:18.925Z,98718.34
2023-07-03T11:52:06.100Z,98705.56
2023-07-03T11:55:14.894Z,98713.78
2023-07-03T11:58:19.944Z,98718.38
2023-07-03T12:01:26.212Z,98717.03
2023-07-03T12:04:11.265Z,98718.03
2023-07-03T12:06:55.865Z,98710.00
2023-07-03T12:09:40.937Z,98699.50
2023-07-03T12:12:28.265Z,98698.72
2023-07-03T12:15:13.865Z,98708.25
2023-07-03T12:18:03.724Z,98697.97
2023-07-03T12:20:48.514Z,98705.41
2023-07-03T12:23:42.233Z,98704.47
2023-07-03T12:26:27.268Z,98696.25
2023-07-03T12:29:12.320Z,98702.75
2023-07-03T12:32:05.745Z,98697.72
2023-07-03T12:34:50.608Z,98700.84
2023-07-03T12:37:35.548Z,98694.00
2023-07-03T12:40:22.208Z,98695.59
2023-07-03T12:43:09.061Z,98714.72
2023-07-03T12:45:55.255Z,98710.41
2023-07-03T12:48:40.216Z,98705.44
2023-07-03T12:51:24.726Z,98694.06
2023-07-03T12:54:12.613Z,98694.47
2023-07-03T12:56:58.303Z,98695.13
2023-07-03T12:59:52.614Z,98696.28
2023-07-03T13:02:37.504Z,98689.06
2023-07-03T13:05:23.794Z,98692.94
2023-07-03T13:08:15.722Z,98704.75
2023-07-03T13:11:03.869Z,98684.97
2023-07-03T13:14:05.652Z,98691.25
2023-07-03T13:16:53.740Z,98684.94
2023-07-03T13:19:38.554Z,98686.13
2023-07-03T13:22:26.147Z,98682.25
2023-07-03T13:25:12.088Z,98671.63
2023-07-03T13:27:57.638Z,98673.78
2023-07-03T13:30:42.459Z,98672.69
2023-07-03T13:33:30.106Z,98669.84
2023-07-03T13:36:26.562Z,98670.13
2023-07-03T13:39:17.020Z,98674.84
2023-07-03T13:42:01.747Z,98667.81
2023-07-03T13:44:46.769Z,98673.56
2023-07-03T13:47:31.381Z,98673.44
2023-07-03T13:50:16.494Z,98682.78
2023-07-03T13:53:01.401Z,98681.50
2023-07-03T13:55:46.204Z,98674.25
2023-07-03T13:58:32.314Z,98673.13
2023-07-03T14:01:26.335Z,98671.25
2023-07-03T14:04:12.836Z,98672.94
2023-07-03T14:06:57.803Z,98672.94
2023-07-03T14:09:42.816Z,98672.34
2023-07-03T14:12:27.287Z,98677.78
2023-07-03T14:15:15.325Z,98678.00
2023-07-03T14:18:00.563Z,98677.16
2023-07-03T14:20:49.503Z,98677.69
2023-07-03T14:23:34.412Z,98670.50
2023-07-03T14:26:19.645Z,98674.59
2023-07-03T14:29:04.459Z,98679.06
2023-07-03T14:31:50.698Z,98676.47
2023-07-03T14:34:35.443Z,98665.47
2023-07-03T14:37:20.599Z,98687.00
2023-07-03T14:40:06.441Z,98684.28
2023-07-03T14:42:51.299Z,98682.59
2023-07-03T14:45:36.319Z,98681.31
2023-07-03T14:48:21.296Z,98679.56
2023-07-03T14:51:06.352Z,98683.13
2023-07-03T14:53:50.827Z,98676.84
2023-07-03T14:56:35.480Z,98673.44
2023-07-03T14:59:20.043Z,98679.56
2023-07-03T15:02:06.225Z,98674.63
2023-07-03T15:04:51.336Z,98675.81
2023-07-03T15:07:36.366Z,98677.28
2023-07-03T15:10:21.207Z,98669.16
2023-07-03T15:13:06.248Z,98670.78
2023-07-03T15:15:51.630Z,98673.53
2023-07-03T15:18:36.670Z,98682.22
2023-07-03T15:21:21.730Z,98684.16
2023-07-03T15:24:08.687Z,98680.31
2023-07-03T15:26:53.277Z,98684.16
2023-07-03T15:29:38.320Z,98679.91
2023-07-03T15:32:23.183Z,98674.25
2023-07-03T15:35:08.391Z,98676.13
2023-07-03T15:37:52.841Z,98676.44
2023-07-03T15:40:37.470Z,98682.88
2023-07-03T15:43:22.892Z,98688.69
2023-07-03T15:46:18.598Z,98695.59
2023-07-03T15:49:03.256Z,98688.34
2023-07-03T15:51:48.963Z,98687.97
2023-07-03T15:54:35.294Z,98681.16
2023-07-03T15:57:22.285Z,98683.81
2023-07-03T16:00:08.277Z,98697.53
2023-07-03T16:02:52.698Z,98692.19
2023-07-03T16:05:37.697Z,98694.47
2023-07-03T16:08:22.423Z,98688.00
2023-07-03T16:11:11.582Z,98695.53
2023-07-03T16:13:59.680Z,98703.47
2023-07-03T16:16:44.729Z,98697.44
2023-07-03T16:19:29.489Z,98704.75
2023-07-03T16:22:14.139Z,98708.56
2023-07-03T16:24:59.033Z,98712.38
2023-07-03T16:27:45.923Z,98716.19
2023-07-03T16:30:30.698Z,98715.44
2023-07-03T16:33:15.686Z,98711.97
2023-07-03T16:36:06.520Z,98711.13
2023-07-03T16:38:51.225Z,98728.03
2023-07-03T16:41:38.911Z,98723.59
2023-07-03T16:44:23.906Z,98723.19
2023-07-03T16:47:08.977Z,98731.44
2023-07-03T16:49:54.032Z,98730.72
2023-07-03T16:52:39.056Z,98734.72
2023-07-03T16:55:23.672Z,98734.28
2023-07-03T16:58:08.332Z,98733.19
2023-07-03T17:00:55.235Z,98745.03
2023-07-03T17:03:40.447Z,98739.66
2023-07-03T17:06:30.922Z,98739.22
2023-07-03T17:09:18.840Z,98748.41
2023-07-03T17:12:03.611Z,98746.56
2023-07-03T17:14:48.393Z,98750.78
2023-07-03T17:17:33.488Z,98751.19
2023-07-03T17:20:19.636Z,98750.72
2023-07-03T17:23:05.063Z,98759.03
2023-07-03T17:25:50.353Z,98754.69
2023-07-03T17:28:35.521Z,98762.94
2023-07-03T17:31:24.219Z,98756.56
2023-07-03T17:34:08.921Z,98760.16
2023-07-03T17:36:53.691Z,98765.81
2023-07-03T17:39:38.938Z,98761.91
2023-07-03T17:42:26.321Z,98766.72
2023-07-03T17:45:11.337Z,98770.50
2023-07-03T17:47:56.681Z,98773.47
2023-07-03T17:50:41.775Z,98771.66
2023-07-03T17:53:26.854Z,98771.75
2023-07-03T17:56:11.809Z,98778.44
2023-07-03T17:58:56.340Z,98777.06
2023-07-03T18:01:41.433Z,98778.69
2023-07-03T18:04:26.577Z,98779.91
2023-07-03T18:07:13.046Z,98783.47
2023-07-03T18:09:58.233Z,98786.50
2023-07-03T18:12:43.008Z,98795.13
2023-07-03T18:15:39.150Z,98786.97
2023-07-03T18:18:28.836Z,98793.34
2023-07-03T18:21:13.860Z,98795.31
2023-07-03T18:23:59.672Z,98798.16
2023-07-03T18:26:44.449Z,98804.69
2023-07-03T18:29:29.162Z,98794.88
2023-07-03T18:32:14.076Z,98804.78
2023-07-03T18:34:58.935Z,98803.31
2023-07-03T18:37:44.422Z,98805.78
2023-07-03T18:40:29.558Z,98817.06
2023-07-03T18:43:14.584Z,98817.88
2023-07-03T18:45:59.721Z,98818.06
2023-07-03T18:48:44.564Z,98815.00
2023-07-03T18:51:29.531Z,98827.00
2023-07-03T18:54:14.413Z,98824.69
2023-07-03T18:57:00.296Z,98830.41
2023-07-03T18:59:46.614Z,98828.75
2023-07-03T19:02:31.679Z,98829.50
2023-07-03T19:05:16.987Z,98844.72
2023-07-03T19:08:01.992Z,98849.56
2023-07-03T19:10:46.764Z,98843.66
2023-07-03T19:13:33.109Z,98845.09
2023-07-03T19:16:18.304Z,98851.16
2023-07-03T19:19:03.564Z,98849.69
2023-07-03T19:21:48.218Z,98849.00
2023-07-03T19:24:33.902Z,98847.81
2023-07-03T19:27:18.260Z,98852.31
2023-07-03T19:30:04.337Z,98857.91
2023-07-03T19:32:48.902Z,98857.78
2023-07-03T19:35:35.074Z,98854.25
2023-07-03T19:38:20.040Z,98860.31
2023-07-03T19:41:05.048Z,98854.31
2023-07-03T19:43:49.674Z,98859.03
2023-07-03T19:46:34.927Z,98855.16
2023-07-03T19:49:20.187Z,98858.63
2023-07-03T19:52:05.464Z,98857.41
2023-07-03T19:54:50.389Z,98852.81
2023-07-03T19:57:36.048Z,98854.22
2023-07-03T20:00:21.586Z,98860.53
2023-07-03T20:03:07.251Z,98853.81
2023-07-03T20:05:52.250Z,98857.81
2023-07-03T20:08:41.029Z,98861.28
2023-07-03T20:11:25.876Z,98858.19
2023-07-03T20:14:10.586Z,98861.34
2023-07-03T20:16:55.389Z,98856.97
2023-07-03T20:19:40.381Z,98863.28
2023-07-03T20:22:25.164Z,98862.25
2023-07-03T20:25:10.705Z,98866.19
2023-07-03T20:27:55.679Z,98864.16
2023-07-03T20:30:46.614Z,98867.25
2023-07-03T20:33:33.280Z,98875.63
2023-07-03T20:36:18.986Z,98872.53
2023-07-03T20:39:05.203Z,98875.38
2023-07-03T20:41:50.154Z,98873.31
2023-07-03T20:44:35.042Z,98872.34
2023-07-03T20:47:20.714Z,98875.97
2023-07-03T20:50:06.762Z,98877.59
2023-07-03T20:52:54.400Z,98878.94
2023-07-03T20:55:43.808Z,98885.47
2023-07-03T20:58:28.968Z,98889.94
2023-07-03T21:01:16.654Z,98886.56
2023-07-03T21:04:05.090Z,98893.91
2023-07-03T21:06:50.310Z,98895.28
2023-07-03T21:09:35.140Z,98892.44
2023-07-03T21:12:19.878Z,98890.66
2023-07-03T21:15:05.706Z,98893.25
2023-07-03T21:17:58.381Z,98893.03
2023-07-03T21:20:43.225Z,98896.44
2023-07-03T21:23:27.946Z,98892.81
2023-07-03T21:26:15.553Z,98887.91
2023-07-03T21:29:00.648Z,98895.44
2023-07-03T21:31:45.478Z,98891.31
2023-07-03T21:34:30.475Z,98896.28
2023-07-03T21:37:15.513Z,98887.19
2023-07-03T21:40:00.448Z,98894.75
2023-07-03T21:42:45.615Z,98893.47
2023-07-03T21:45:30.179Z,98888.03
2023-07-03T21:48:15.439Z,98887.81
2023-07-03T21:51:00.255Z,98883.91
2023-07-03T21:53:48.924Z,98883.41
2023-07-03T21:56:33.697Z,98887.88
2023-07-03T21:59:18.822Z,98890.22
2023-07-03T22:02:04.251Z,98885.56
2023-07-03T22:04:49.030Z,98883.47
2023-07-03T22:07:34.251Z,98885.38
2023-07-03T22:10:19.266Z,98891.09
2023-07-03T22:13:05.579Z,98884.84
2023-07-03T22:15:51.226Z,98888.53
2023-07-03T22:18:36.129Z,98888.25
2023-07-03T22:21:21.186Z,98885.41
2023-07-03T22:24:06.156Z,98882.03
2023-07-03T22:26:51.002Z,98883.34
2023-07-03T22:29:37.096Z,98882.34
2023-07-03T22:32:21.953Z,98881.84
2023-07-03T22:35:07.513Z,98884.69
2023-07-03T22:37:53.950Z,98880.78
2023-07-03T22:40:40.066Z,98882.09
2023-07-03T22:43:24.678Z,98881.59
2023-07-03T22:46:09.844Z,98884.19
2023-07-03T22:48:54.511Z,98878.75
2023-07-03T22:51:40.370Z,98878.00
2023-07-03T22:54:25.152Z,98878.53
2023-07-03T22:57:09.936Z,98877.47
2023-07-03T22:59:55.255Z,98879.56
2023-07-03T23:02:40.566Z,98877.97
2023-07-03T23:05:25.423Z,98883.72
2023-07-03T23:08:11.854Z,98889.16
2023-07-03T23:10:57.304Z,98890.75
2023-07-03T23:13:42.454Z,98883.00
2023-07-03T23:16:29.061Z,98892.84
2023-07-03T23:19:13.824Z,98892.59
2023-07-03T23:21:58.862Z,98899.09
2023-07-03T23:24:45.388Z,98898.06
2023-07-03T23:27:30.371Z,98894.94
2023-07-03T23:30:15.249Z,98895.47
2023-07-03T23:33:00.441Z,98891.34
2023-07-03T23:35:45.302Z,98893.16
2023-07-03T23:38:30.214Z,98898.88
2023-07-03T23:41:16.241Z,98895.75
2023-07-03T23:44:01.764Z,98898.09
2023-07-03T23:46:46.423Z,98897.06
2023-07-03T23:49:31.292Z,98892.91
2023-07-03T23:52:16.496Z,98896.81
2023-07-03T23:55:01.469Z,98893.97
2023-07-03T23:57:46.156Z,98890.34
